sensor_id;sensor_type;location;lat;lon;timestamp;P1;durP1;ratioP1;P2;durP2;ratioP2
24090;SDS011;12272;52.426;17.100;2023-07-29T00:01:45;9.65;;;4.47;;
24090;SDS011;12272;52.426;17.100;2023-07-29T00:06:48;5.00;;;4.50;;
24090;SDS011;12272;52.426;17.100;2023-07-29T00:11:50;4.43;;;3.67;;
24090;SDS011;12272;52.426;17.100;2023-07-29T00:16:53;7.65;;;5.55;;
24090;SDS011;12272;52.426;17.100;2023-07-29T00:21:55;5.35;;;4.63;;
24090;SDS011;12272;52.426;17.100;2023-07-29T00:26:58;4.63;;;3.85;;
24090;SDS011;12272;52.426;17.100;2023-07-29T00:32:01;8.02;;;5.00;;
24090;SDS011;12272;52.426;17.100;2023-07-29T00:37:04;3.83;;;3.03;;
24090;SDS011;12272;52.426;17.100;2023-07-29T00:42:08;4.88;;;3.67;;
24090;SDS011;12272;52.426;17.100;2023-07-29T00:47:11;3.65;;;3.35;;
24090;SDS011;12272;52.426;17.100;2023-07-29T00:52:14;7.40;;;5.00;;
24090;SDS011;12272;52.426;17.100;2023-07-29T00:57:18;5.68;;;4.50;;
24090;SDS011;12272;52.426;17.100;2023-07-29T01:02:22;4.47;;;4.07;;
24090;SDS011;12272;52.426;17.100;2023-07-29T01:12:42;3.55;;;3.25;;
24090;SDS011;12272;52.426;17.100;2023-07-29T01:18:10;6.90;;;3.72;;
24090;SDS011;12272;52.426;17.100;2023-07-29T01:23:23;6.72;;;4.45;;
24090;SDS011;12272;52.426;17.100;2023-07-29T01:28:26;7.07;;;4.63;;
24090;SDS011;12272;52.426;17.100;2023-07-29T01:33:31;3.58;;;3.28;;
24090;SDS011;12272;52.426;17.100;2023-07-29T01:38:38;5.57;;;3.53;;
24090;SDS011;12272;52.426;17.100;2023-07-29T01:43:43;5.90;;;3.58;;
24090;SDS011;12272;52.426;17.100;2023-07-29T01:48:48;4.55;;;4.03;;
24090;SDS011;12272;52.426;17.100;2023-07-29T01:53:50;5.50;;;4.28;;
24090;SDS011;12272;52.426;17.100;2023-07-29T01:58:53;3.80;;;3.50;;
24090;SDS011;12272;52.426;17.100;2023-07-29T02:03:56;3.97;;;2.58;;
24090;SDS011;12272;52.426;17.100;2023-07-29T02:08:59;12.88;;;4.53;;
24090;SDS011;12272;52.426;17.100;2023-07-29T02:14:02;6.38;;;4.63;;
24090;SDS011;12272;52.426;17.100;2023-07-29T02:19:05;6.93;;;4.60;;
24090;SDS011;12272;52.426;17.100;2023-07-29T02:24:07;7.03;;;4.18;;
24090;SDS011;12272;52.426;17.100;2023-07-29T02:29:10;5.53;;;3.50;;
24090;SDS011;12272;52.426;17.100;2023-07-29T02:34:13;2.53;;;2.33;;
24090;SDS011;12272;52.426;17.100;2023-07-29T02:39:15;5.15;;;4.03;;
24090;SDS011;12272;52.426;17.100;2023-07-29T02:44:18;7.03;;;4.03;;
24090;SDS011;12272;52.426;17.100;2023-07-29T02:49:22;3.88;;;3.58;;
24090;SDS011;12272;52.426;17.100;2023-07-29T02:54:25;9.27;;;3.47;;
24090;SDS011;12272;52.426;17.100;2023-07-29T02:59:28;6.63;;;3.10;;
24090;SDS011;12272;52.426;17.100;2023-07-29T03:04:31;8.25;;;3.40;;
24090;SDS011;12272;52.426;17.100;2023-07-29T03:09:36;3.60;;;3.28;;
24090;SDS011;12272;52.426;17.100;2023-07-29T03:14:38;4.68;;;3.90;;
24090;SDS011;12272;52.426;17.100;2023-07-29T03:19:41;3.58;;;2.65;;
24090;SDS011;12272;52.426;17.100;2023-07-29T03:24:43;2.15;;;1.73;;
24090;SDS011;12272;52.426;17.100;2023-07-29T03:29:46;3.03;;;2.70;;
24090;SDS011;12272;52.426;17.100;2023-07-29T03:34:49;3.13;;;2.53;;
24090;SDS011;12272;52.426;17.100;2023-07-29T03:39:52;3.22;;;2.13;;
24090;SDS011;12272;52.426;17.100;2023-07-29T03:44:54;3.65;;;2.03;;
24090;SDS011;12272;52.426;17.100;2023-07-29T03:49:57;2.78;;;2.47;;
24090;SDS011;12272;52.426;17.100;2023-07-29T03:54:59;3.20;;;2.78;;
24090;SDS011;12272;52.426;17.100;2023-07-29T04:00:02;4.93;;;2.92;;
24090;SDS011;12272;52.426;17.100;2023-07-29T04:05:15;4.20;;;3.30;;
24090;SDS011;12272;52.426;17.100;2023-07-29T04:10:18;4.32;;;2.90;;
24090;SDS011;12272;52.426;17.100;2023-07-29T04:15:21;5.75;;;2.92;;
24090;SDS011;12272;52.426;17.100;2023-07-29T04:20:24;4.20;;;3.08;;
24090;SDS011;12272;52.426;17.100;2023-07-29T04:25:27;4.63;;;3.15;;
24090;SDS011;12272;52.426;17.100;2023-07-29T04:30:30;11.70;;;3.53;;
24090;SDS011;12272;52.426;17.100;2023-07-29T04:35:32;11.82;;;4.38;;
24090;SDS011;12272;52.426;17.100;2023-07-29T04:40:35;4.00;;;3.67;;
24090;SDS011;12272;52.426;17.100;2023-07-29T04:45:42;5.75;;;3.58;;
24090;SDS011;12272;52.426;17.100;2023-07-29T04:50:45;6.18;;;3.78;;
24090;SDS011;12272;52.426;17.100;2023-07-29T04:55:48;4.80;;;3.85;;
24090;SDS011;12272;52.426;17.100;2023-07-29T05:00:50;6.30;;;4.10;;
24090;SDS011;12272;52.426;17.100;2023-07-29T05:05:53;5.55;;;3.28;;
24090;SDS011;12272;52.426;17.100;2023-07-29T05:10:58;6.53;;;3.28;;
24090;SDS011;12272;52.426;17.100;2023-07-29T05:16:00;11.65;;;5.15;;
24090;SDS011;12272;52.426;17.100;2023-07-29T05:21:03;15.07;;;4.90;;
24090;SDS011;12272;52.426;17.100;2023-07-29T05:26:05;5.32;;;4.82;;
24090;SDS011;12272;52.426;17.100;2023-07-29T05:31:08;5.68;;;5.25;;
24090;SDS011;12272;52.426;17.100;2023-07-29T05:36:11;9.68;;;6.88;;
24090;SDS011;12272;52.426;17.100;2023-07-29T05:41:13;7.80;;;7.10;;
24090;SDS011;12272;52.426;17.100;2023-07-29T05:46:16;9.40;;;8.50;;
24090;SDS011;12272;52.426;17.100;2023-07-29T05:51:18;13.70;;;8.02;;
24090;SDS011;12272;52.426;17.100;2023-07-29T05:56:21;9.38;;;8.30;;
24090;SDS011;12272;52.426;17.100;2023-07-29T06:01:28;16.58;;;8.80;;
24090;SDS011;12272;52.426;17.100;2023-07-29T06:06:30;10.45;;;9.38;;
24090;SDS011;12272;52.426;17.100;2023-07-29T06:11:33;11.88;;;10.35;;
24090;SDS011;12272;52.426;17.100;2023-07-29T06:16:35;6.10;;;5.55;;
24090;SDS011;12272;52.426;17.100;2023-07-29T06:21:38;9.50;;;8.70;;
24090;SDS011;12272;52.426;17.100;2023-07-29T06:26:41;6.97;;;6.38;;
24090;SDS011;12272;52.426;17.100;2023-07-29T06:31:43;2.38;;;2.17;;
24090;SDS011;12272;52.426;17.100;2023-07-29T06:36:46;9.68;;;8.68;;
24090;SDS011;12272;52.426;17.100;2023-07-29T06:41:48;8.63;;;6.63;;
24090;SDS011;12272;52.426;17.100;2023-07-29T06:46:52;9.13;;;8.25;;
24090;SDS011;12272;52.426;17.100;2023-07-29T06:51:55;7.68;;;6.03;;
24090;SDS011;12272;52.426;17.100;2023-07-29T06:56:58;6.72;;;5.90;;
24090;SDS011;12272;52.426;17.100;2023-07-29T07:02:00;6.95;;;6.10;;
24090;SDS011;12272;52.426;17.100;2023-07-29T07:07:04;3.95;;;3.65;;
24090;SDS011;12272;52.426;17.100;2023-07-29T07:12:07;5.32;;;4.82;;
24090;SDS011;12272;52.426;17.100;2023-07-29T07:17:10;5.57;;;5.10;;
24090;SDS011;12272;52.426;17.100;2023-07-29T07:22:14;9.73;;;8.40;;
24090;SDS011;12272;52.426;17.100;2023-07-29T07:27:17;2.45;;;2.25;;
24090;SDS011;12272;52.426;17.100;2023-07-29T07:32:19;5.68;;;5.15;;
24090;SDS011;12272;52.426;17.100;2023-07-29T07:37:22;6.57;;;3.83;;
24090;SDS011;12272;52.426;17.100;2023-07-29T07:42:26;4.05;;;3.67;;
24090;SDS011;12272;52.426;17.100;2023-07-29T07:47:28;0.80;;;0.80;;
24090;SDS011;12272;52.426;17.100;2023-07-29T07:52:31;8.77;;;7.97;;
24090;SDS011;12272;52.426;17.100;2023-07-29T07:57:33;0.77;;;0.75;;
24090;SDS011;12272;52.426;17.100;2023-07-29T08:02:36;10.02;;;6.10;;
24090;SDS011;12272;52.426;17.100;2023-07-29T08:07:38;4.63;;;4.22;;
24090;SDS011;12272;52.426;17.100;2023-07-29T08:12:41;5.40;;;4.43;;
24090;SDS011;12272;52.426;17.100;2023-07-29T08:17:45;6.10;;;5.47;;
24090;SDS011;12272;52.426;17.100;2023-07-29T08:22:48;1.35;;;1.25;;
24090;SDS011;12272;52.426;17.100;2023-07-29T08:27:50;5.78;;;5.25;;
24090;SDS011;12272;52.426;17.100;2023-07-29T08:32:53;6.45;;;5.85;;
24090;SDS011;12272;52.426;17.100;2023-07-29T08:37:55;5.50;;;4.75;;
24090;SDS011;12272;52.426;17.100;2023-07-29T08:42:58;2.13;;;1.95;;
24090;SDS011;12272;52.426;17.100;2023-07-29T08:48:02;3.22;;;2.55;;
24090;SDS011;12272;52.426;17.100;2023-07-29T08:53:08;2.92;;;2.65;;
24090;SDS011;12272;52.426;17.100;2023-07-29T08:58:12;6.82;;;4.40;;
24090;SDS011;12272;52.426;17.100;2023-07-29T09:03:15;3.55;;;3.17;;
24090;SDS011;12272;52.426;17.100;2023-07-29T09:08:18;5.22;;;4.72;;
24090;SDS011;12272;52.426;17.100;2023-07-29T09:13:21;1.63;;;1.42;;
24090;SDS011;12272;52.426;17.100;2023-07-29T09:18:25;5.28;;;4.78;;
24090;SDS011;12272;52.426;17.100;2023-07-29T09:23:38;3.63;;;2.90;;
24090;SDS011;12272;52.426;17.100;2023-07-29T09:28:44;4.13;;;3.70;;
24090;SDS011;12272;52.426;17.100;2023-07-29T09:33:55;1.02;;;0.93;;
24090;SDS011;12272;52.426;17.100;2023-07-29T09:39:01;2.75;;;2.28;;
24090;SDS011;12272;52.426;17.100;2023-07-29T09:44:05;2.95;;;2.58;;
24090;SDS011;12272;52.426;17.100;2023-07-29T09:49:08;3.10;;;2.80;;
24090;SDS011;12272;52.426;17.100;2023-07-29T09:54:11;1.40;;;1.30;;
24090;SDS011;12272;52.426;17.100;2023-07-29T09:59:18;2.65;;;2.15;;
24090;SDS011;12272;52.426;17.100;2023-07-29T10:04:25;3.28;;;3.00;;
24090;SDS011;12272;52.426;17.100;2023-07-29T10:09:28;1.90;;;1.75;;
24090;SDS011;12272;52.426;17.100;2023-07-29T10:14:31;1.92;;;1.65;;
24090;SDS011;12272;52.426;17.100;2023-07-29T10:19:34;3.92;;;3.10;;
24090;SDS011;12272;52.426;17.100;2023-07-29T10:24:38;5.63;;;3.58;;
24090;SDS011;12272;52.426;17.100;2023-07-29T10:29:44;1.38;;;1.27;;
24090;SDS011;12272;52.426;17.100;2023-07-29T10:34:47;4.35;;;3.95;;
24090;SDS011;12272;52.426;17.100;2023-07-29T10:39:54;3.33;;;2.95;;
24090;SDS011;12272;52.426;17.100;2023-07-29T10:44:57;4.15;;;3.85;;
24090;SDS011;12272;52.426;17.100;2023-07-29T10:50:00;4.32;;;3.65;;
24090;SDS011;12272;52.426;17.100;2023-07-29T10:55:03;3.08;;;2.88;;
24090;SDS011;12272;52.426;17.100;2023-07-29T11:00:24;1.15;;;1.05;;
24090;SDS011;12272;52.426;17.100;2023-07-29T11:10:57;1.27;;;1.17;;
24090;SDS011;12272;52.426;17.100;2023-07-29T11:16:00;4.20;;;3.13;;
24090;SDS011;12272;52.426;17.100;2023-07-29T11:21:04;7.10;;;3.55;;
24090;SDS011;12272;52.426;17.100;2023-07-29T11:26:07;2.53;;;1.80;;
24090;SDS011;12272;52.426;17.100;2023-07-29T11:31:09;1.40;;;1.30;;
24090;SDS011;12272;52.426;17.100;2023-07-29T11:36:18;2.13;;;1.92;;
24090;SDS011;12272;52.426;17.100;2023-07-29T11:41:26;2.70;;;2.50;;
24090;SDS011;12272;52.426;17.100;2023-07-29T11:46:28;5.00;;;3.30;;
24090;SDS011;12272;52.426;17.100;2023-07-29T11:51:31;3.25;;;2.95;;
24090;SDS011;12272;52.426;17.100;2023-07-29T11:56:34;1.40;;;1.30;;
24090;SDS011;12272;52.426;17.100;2023-07-29T12:01:38;3.50;;;3.20;;
24090;SDS011;12272;52.426;17.100;2023-07-29T12:06:42;3.35;;;3.05;;
24090;SDS011;12272;52.426;17.100;2023-07-29T12:11:45;3.08;;;2.80;;
24090;SDS011;12272;52.426;17.100;2023-07-29T12:16:48;1.70;;;1.60;;
24090;SDS011;12272;52.426;17.100;2023-07-29T12:21:51;3.17;;;2.85;;
24090;SDS011;12272;52.426;17.100;2023-07-29T12:26:54;2.85;;;2.65;;
24090;SDS011;12272;52.426;17.100;2023-07-29T12:32:03;3.80;;;1.70;;
24090;SDS011;12272;52.426;17.100;2023-07-29T12:37:06;2.88;;;2.42;;
24090;SDS011;12272;52.426;17.100;2023-07-29T12:42:09;1.67;;;1.55;;
24090;SDS011;12272;52.426;17.100;2023-07-29T12:47:12;3.00;;;2.78;;
24090;SDS011;12272;52.426;17.100;2023-07-29T12:52:15;2.63;;;2.42;;
24090;SDS011;12272;52.426;17.100;2023-07-29T12:57:18;3.03;;;2.80;;
24090;SDS011;12272;52.426;17.100;2023-07-29T13:02:20;7.05;;;2.58;;
24090;SDS011;12272;52.426;17.100;2023-07-29T13:07:23;5.05;;;3.30;;
24090;SDS011;12272;52.426;17.100;2023-07-29T13:12:26;1.60;;;1.50;;
24090;SDS011;12272;52.426;17.100;2023-07-29T13:17:28;2.67;;;2.47;;
24090;SDS011;12272;52.426;17.100;2023-07-29T13:22:31;3.90;;;1.75;;
24090;SDS011;12272;52.426;17.100;2023-07-29T13:27:33;3.25;;;2.15;;
24090;SDS011;12272;52.426;17.100;2023-07-29T13:32:36;2.65;;;2.45;;
24090;SDS011;12272;52.426;17.100;2023-07-29T13:37:39;2.40;;;2.20;;
24090;SDS011;12272;52.426;17.100;2023-07-29T13:42:41;3.08;;;2.78;;
24090;SDS011;12272;52.426;17.100;2023-07-29T13:47:44;2.83;;;2.63;;
24090;SDS011;12272;52.426;17.100;2023-07-29T13:52:46;3.03;;;1.90;;
24090;SDS011;12272;52.426;17.100;2023-07-29T13:57:50;3.95;;;2.40;;
24090;SDS011;12272;52.426;17.100;2023-07-29T14:02:52;7.75;;;1.67;;
24090;SDS011;12272;52.426;17.100;2023-07-29T14:07:55;5.07;;;2.90;;
24090;SDS011;12272;52.426;17.100;2023-07-29T14:12:58;3.15;;;1.80;;
24090;SDS011;12272;52.426;17.100;2023-07-29T14:18:00;7.25;;;2.50;;
24090;SDS011;12272;52.426;17.100;2023-07-29T14:23:04;1.63;;;1.52;;
24090;SDS011;12272;52.426;17.100;2023-07-29T14:28:07;1.80;;;1.55;;
24090;SDS011;12272;52.426;17.100;2023-07-29T14:33:10;3.83;;;2.50;;
24090;SDS011;12272;52.426;17.100;2023-07-29T14:38:12;5.20;;;3.38;;
24090;SDS011;12272;52.426;17.100;2023-07-29T14:43:15;1.58;;;1.48;;
24090;SDS011;12272;52.426;17.100;2023-07-29T14:48:18;1.45;;;1.20;;
24090;SDS011;12272;52.426;17.100;2023-07-29T14:53:20;2.40;;;0.95;;
24090;SDS011;12272;52.426;17.100;2023-07-29T14:58:23;1.42;;;0.80;;
24090;SDS011;12272;52.426;17.100;2023-07-29T15:03:27;1.52;;;1.42;;
24090;SDS011;12272;52.426;17.100;2023-07-29T15:08:30;1.23;;;1.08;;
24090;SDS011;12272;52.426;17.100;2023-07-29T15:13:32;0.95;;;0.88;;
24090;SDS011;12272;52.426;17.100;2023-07-29T15:18:35;1.40;;;1.30;;
24090;SDS011;12272;52.426;17.100;2023-07-29T15:23:37;1.42;;;1.33;;
24090;SDS011;12272;52.426;17.100;2023-07-29T15:28:40;1.90;;;1.40;;
24090;SDS011;12272;52.426;17.100;2023-07-29T15:33:42;1.60;;;1.25;;
24090;SDS011;12272;52.426;17.100;2023-07-29T15:38:45;3.15;;;2.03;;
24090;SDS011;12272;52.426;17.100;2023-07-29T15:43:47;2.17;;;1.33;;
24090;SDS011;12272;52.426;17.100;2023-07-29T15:48:50;1.27;;;1.10;;
24090;SDS011;12272;52.426;17.100;2023-07-29T15:53:52;4.30;;;1.63;;
24090;SDS011;12272;52.426;17.100;2023-07-29T15:58:55;4.20;;;2.40;;
24090;SDS011;12272;52.426;17.100;2023-07-29T16:03:58;1.75;;;1.33;;
24090;SDS011;12272;52.426;17.100;2023-07-29T16:09:01;1.85;;;1.63;;
24090;SDS011;12272;52.426;17.100;2023-07-29T16:14:08;4.63;;;2.65;;
24090;SDS011;12272;52.426;17.100;2023-07-29T16:19:11;4.25;;;2.50;;
24090;SDS011;12272;52.426;17.100;2023-07-29T16:24:13;3.55;;;2.53;;
24090;SDS011;12272;52.426;17.100;2023-07-29T16:29:17;1.48;;;1.38;;
24090;SDS011;12272;52.426;17.100;2023-07-29T16:34:20;4.32;;;1.98;;
24090;SDS011;12272;52.426;17.100;2023-07-29T16:39:22;2.17;;;1.98;;
24090;SDS011;12272;52.426;17.100;2023-07-29T16:44:25;2.17;;;1.98;;
24090;SDS011;12272;52.426;17.100;2023-07-29T16:49:27;1.50;;;1.40;;
24090;SDS011;12272;52.426;17.100;2023-07-29T16:54:30;1.55;;;1.33;;
24090;SDS011;12272;52.426;17.100;2023-07-29T16:59:32;0.90;;;0.80;;
24090;SDS011;12272;52.426;17.100;2023-07-29T17:04:35;1.60;;;0.95;;
24090;SDS011;12272;52.426;17.100;2023-07-29T17:09:39;1.30;;;0.90;;
24090;SDS011;12272;52.426;17.100;2023-07-29T17:14:41;3.55;;;0.85;;
24090;SDS011;12272;52.426;17.100;2023-07-29T17:19:44;2.63;;;1.30;;
24090;SDS011;12272;52.426;17.100;2023-07-29T17:24:46;4.65;;;1.20;;
24090;SDS011;12272;52.426;17.100;2023-07-29T17:29:49;5.40;;;1.40;;
24090;SDS011;12272;52.426;17.100;2023-07-29T17:34:52;6.38;;;3.05;;
24090;SDS011;12272;52.426;17.100;2023-07-29T17:39:54;6.38;;;4.30;;
24090;SDS011;12272;52.426;17.100;2023-07-29T17:44:57;6.00;;;1.77;;
24090;SDS011;12272;52.426;17.100;2023-07-29T17:49:59;2.97;;;1.95;;
24090;SDS011;12272;52.426;17.100;2023-07-29T17:55:02;2.88;;;1.35;;
24090;SDS011;12272;52.426;17.100;2023-07-29T18:00:05;3.95;;;1.85;;
24090;SDS011;12272;52.426;17.100;2023-07-29T18:05:08;3.10;;;2.50;;
24090;SDS011;12272;52.426;17.100;2023-07-29T18:10:11;3.80;;;2.72;;
24090;SDS011;12272;52.426;17.100;2023-07-29T18:15:13;2.30;;;1.85;;
24090;SDS011;12272;52.426;17.100;2023-07-29T18:20:16;5.95;;;2.25;;
24090;SDS011;12272;52.426;17.100;2023-07-29T18:25:18;3.85;;;1.90;;
24090;SDS011;12272;52.426;17.100;2023-07-29T18:30:21;5.78;;;2.47;;
24090;SDS011;12272;52.426;17.100;2023-07-29T18:35:23;2.08;;;1.50;;
24090;SDS011;12272;52.426;17.100;2023-07-29T18:40:26;4.47;;;2.22;;
24090;SDS011;12272;52.426;17.100;2023-07-29T18:45:31;3.78;;;2.22;;
24090;SDS011;12272;52.426;17.100;2023-07-29T18:50:34;1.95;;;1.65;;
24090;SDS011;12272;52.426;17.100;2023-07-29T18:55:37;3.55;;;2.00;;
24090;SDS011;12272;52.426;17.100;2023-07-29T19:00:42;2.13;;;1.80;;
24090;SDS011;12272;52.426;17.100;2023-07-29T19:05:45;2.30;;;1.70;;
24090;SDS011;12272;52.426;17.100;2023-07-29T19:10:50;3.13;;;1.73;;
24090;SDS011;12272;52.426;17.100;2023-07-29T19:15:53;2.15;;;1.90;;
24090;SDS011;12272;52.426;17.100;2023-07-29T19:20:56;1.77;;;1.63;;
24090;SDS011;12272;52.426;17.100;2023-07-29T19:25:59;3.17;;;2.25;;
24090;SDS011;12272;52.426;17.100;2023-07-29T19:31:01;4.30;;;2.40;;
24090;SDS011;12272;52.426;17.100;2023-07-29T19:36:04;4.15;;;2.20;;
24090;SDS011;12272;52.426;17.100;2023-07-29T19:41:08;6.13;;;2.53;;
24090;SDS011;12272;52.426;17.100;2023-07-29T19:46:10;2.33;;;2.13;;
24090;SDS011;12272;52.426;17.100;2023-07-29T19:51:33;3.85;;;1.80;;
24090;SDS011;12272;52.426;17.100;2023-07-29T19:56:35;3.50;;;1.90;;
24090;SDS011;12272;52.426;17.100;2023-07-29T20:01:38;7.78;;;2.88;;
24090;SDS011;12272;52.426;17.100;2023-07-29T20:06:41;3.40;;;2.67;;
24090;SDS011;12272;52.426;17.100;2023-07-29T20:11:43;4.00;;;2.83;;
24090;SDS011;12272;52.426;17.100;2023-07-29T20:16:46;2.58;;;2.38;;
24090;SDS011;12272;52.426;17.100;2023-07-29T20:21:48;2.63;;;2.42;;
24090;SDS011;12272;52.426;17.100;2023-07-29T20:26:51;4.35;;;2.72;;
24090;SDS011;12272;52.426;17.100;2023-07-29T20:31:53;1.95;;;1.67;;
24090;SDS011;12272;52.426;17.100;2023-07-29T20:36:56;5.25;;;2.63;;
24090;SDS011;12272;52.426;17.100;2023-07-29T20:41:58;4.78;;;2.50;;
24090;SDS011;12272;52.426;17.100;2023-07-29T20:47:01;2.30;;;2.10;;
24090;SDS011;12272;52.426;17.100;2023-07-29T20:52:04;2.85;;;1.70;;
24090;SDS011;12272;52.426;17.100;2023-07-29T20:57:07;5.10;;;2.40;;
24090;SDS011;12272;52.426;17.100;2023-07-29T21:02:10;1.95;;;1.73;;
24090;SDS011;12272;52.426;17.100;2023-07-29T21:07:13;5.40;;;2.35;;
24090;SDS011;12272;52.426;17.100;2023-07-29T21:12:16;2.28;;;2.00;;
24090;SDS011;12272;52.426;17.100;2023-07-29T21:17:19;5.07;;;2.90;;
24090;SDS011;12272;52.426;17.100;2023-07-29T21:22:21;6.15;;;3.17;;
24090;SDS011;12272;52.426;17.100;2023-07-29T21:27:24;4.30;;;3.25;;
24090;SDS011;12272;52.426;17.100;2023-07-29T21:32:27;3.47;;;2.50;;
24090;SDS011;12272;52.426;17.100;2023-07-29T21:37:30;2.40;;;2.20;;
24090;SDS011;12272;52.426;17.100;2023-07-29T21:42:37;2.55;;;2.25;;
24090;SDS011;12272;52.426;17.100;2023-07-29T21:47:41;4.15;;;2.88;;
24090;SDS011;12272;52.426;17.100;2023-07-29T21:52:44;4.18;;;2.13;;
24090;SDS011;12272;52.426;17.100;2023-07-29T21:57:46;2.08;;;1.88;;
24090;SDS011;12272;52.426;17.100;2023-07-29T22:02:49;6.78;;;3.13;;
24090;SDS011;12272;52.426;17.100;2023-07-29T22:07:51;3.58;;;2.78;;
24090;SDS011;12272;52.426;17.100;2023-07-29T22:12:54;3.05;;;2.72;;
24090;SDS011;12272;52.426;17.100;2023-07-29T22:17:56;2.30;;;2.10;;
24090;SDS011;12272;52.426;17.100;2023-07-29T22:22:59;3.28;;;2.53;;
24090;SDS011;12272;52.426;17.100;2023-07-29T22:28:01;2.60;;;2.20;;
24090;SDS011;12272;52.426;17.100;2023-07-29T22:33:04;4.25;;;2.38;;
24090;SDS011;12272;52.426;17.100;2023-07-29T22:38:07;5.03;;;3.42;;
24090;SDS011;12272;52.426;17.100;2023-07-29T22:43:09;7.50;;;3.92;;
24090;SDS011;12272;52.426;17.100;2023-07-29T22:48:12;5.78;;;4.13;;
24090;SDS011;12272;52.426;17.100;2023-07-29T22:53:15;4.68;;;4.28;;
24090;SDS011;12272;52.426;17.100;2023-07-29T22:58:17;3.47;;;2.83;;
24090;SDS011;12272;52.426;17.100;2023-07-29T23:03:22;4.35;;;2.60;;
24090;SDS011;12272;52.426;17.100;2023-07-29T23:08:25;3.70;;;3.10;;
24090;SDS011;12272;52.426;17.100;2023-07-29T23:13:28;8.00;;;2.70;;
24090;SDS011;12272;52.426;17.100;2023-07-29T23:18:31;2.47;;;2.28;;
24090;SDS011;12272;52.426;17.100;2023-07-29T23:23:34;9.38;;;4.38;;
24090;SDS011;12272;52.426;17.100;2023-07-29T23:28:37;1.67;;;1.58;;
24090;SDS011;12272;52.426;17.100;2023-07-29T23:33:39;2.85;;;2.53;;
24090;SDS011;12272;52.426;17.100;2023-07-29T23:38:42;3.17;;;2.88;;
24090;SDS011;12272;52.426;17.100;2023-07-29T23:43:44;4.93;;;3.67;;
24090;SDS011;12272;52.426;17.100;2023-07-29T23:48:47;4.63;;;3.00;;
24090;SDS011;12272;52.426;17.100;2023-07-29T23:53:49;3.33;;;2.30;;
24090;SDS011;12272;52.426;17.100;2023-07-29T23:58:52;3.90;;;3.50;;
